Accueil
METAR-TAF:

METAR-TAF

Aéroports :

Aéroport de Toussus-le-Noble

Toussus-le-Noble, France

latitude: 48-46N, longitude: 002-06E, altitude: 164 m

Observation

Le bulletin a été fait il y a 38 minutes, à 19:30 UTC
Vent 7 kt de est/sud-est
Température 2°C
Humidité 93%
Pression 1008 hPa
Visibilité: 9000 m

METAR: LFPN 201930Z AUTO 11007KT 9000 NSC 02/01 Q1008 BECMG 4000 BR BKN009

Heure: 21:08 (20:08 UTC)

Prévision

Le bulletin a été fait il y a 3 heures et 8 minutes, à 17:00 UTC
Prévision valable du 20 à 18 UTC au 21 à 03 UTC
Vent 10 kt de est/sud-est
Visibilité: 8000 m
Nuages épars à une hauteur de 1400 ft
Evoluant progressivement
du 20 à 19 UTC au 20 à 22 UTC
Visibilité: 4000 m
Nuages fragmentés à une hauteur de 900 ft
brume
Temporairement
du 21 à 00 UTC au 21 à 03 UTC
Visibilité: 0500 m
brouillard

TAF: LFPN 201700Z 2018/2103 12010KT 8000 SCT014 BECMG 2019/2022 4000 BR BKN009 TEMPO 2100/2103 0500 FG VV///

Observations et prévisions météorologiques de plus de 4000 aéroports (messages METAR et TAF).

Les stations disponibles sont représentées par des disques jaunes et rouges sur la carte.

Passer la souris dessus pour voir le nom de la station.

Cliquer dessus pour voir les observations et prévisions météorologiques.

Pour changer de carte: cliquez sur les boutons verts avec une croix noire pour zoomer, sur le bouton vert avec un tiret pour effectuer un zoom arrière, ou sur les flèches vertes pour les cartes adjacentes.


METAR-TAF: